Time;durP1;ratioP1;P1;durP2;ratioP2;P2;SDS_P1;SDS_P2;PMS_P1;PMS_P2;Temp;Humidity;BMP_temperature;BMP_pressure;BME280_temperature;BME280_humidity;BME280_pressure;Samples;Min_cycle;Max_cycle;Signal;HPM_P1;HPM_P2
2024/01/28 00:00:39;;;;;;;;;;;;;;;-1.33;100.00;103291.53;5005815;28;19925;-68
2024/01/28 00:03:05;;;;;;;;;;;;;;;-1.29;100.00;103281.03;4993905;28;20313;-68
2024/01/28 00:05:31;;;;;;;;;;;;;;;-1.17;100.00;103271.47;4995642;28;20012;-68
2024/01/28 00:07:56;;;;;;;;;;;;;;;-1.11;100.00;103272.44;4993500;28;19924;-68
2024/01/28 00:10:21;;;;;;;;;;;;;;;-0.94;100.00;103276.97;4994610;28;20012;-68
2024/01/28 00:12:46;;;;;;;;;;;;;;;-0.79;100.00;103279.75;4994018;28;20400;-68
2024/01/28 00:15:12;;;;;;;;;;;;;;;-0.68;100.00;103273.69;5004937;28;21013;-68
2024/01/28 00:17:37;;;;;;;;;;;;;;;-0.58;100.00;103266.72;4983962;28;20031;-68
2024/01/28 00:20:05;;;;;;;;;;;;;;;-0.51;100.00;103269.44;4988947;28;19921;-68
2024/01/28 00:22:30;;;;;;;;;;;;;;;-0.41;100.00;103272.16;4978011;28;20296;-68
2024/01/28 00:24:55;;;;;;;;;;;;;;;-0.40;100.00;103253.69;4992689;28;20525;-68
2024/01/28 00:27:21;;;;;;;;;;;;;;;-0.36;100.00;103255.47;5006336;28;19949;-68
2024/01/28 00:29:46;;;;;;;;;;;;;;;-0.34;100.00;103250.22;4986286;28;20036;-68
2024/01/28 00:32:11;;;;;;;;;;;;;;;-0.32;100.00;103246.69;4987955;28;21974;-68
2024/01/28 00:34:36;;;;;;;;;;;;;;;-0.31;100.00;103244.94;4994570;28;19918;-68
2024/01/28 00:37:02;;;;;;;;;;;;;;;-0.25;100.00;103244.97;4994700;28;19917;-68
2024/01/28 00:39:28;;;;;;;;;;;;;;;-0.23;100.00;103237.94;4990253;28;19928;-68
2024/01/28 00:41:53;;;;;;;;;;;;;;;-0.22;100.00;103229.16;4989886;28;19979;-68
2024/01/28 00:44:19;;;;;;;;;;;;;;;-0.28;100.00;103222.97;4991856;28;19926;-68
2024/01/28 00:46:44;;;;;;;;;;;;;;;-0.32;100.00;103225.56;4988847;28;19925;-68
2024/01/28 00:49:09;;;;;;;;;;;;;;;-0.31;100.00;103224.69;4987506;28;19980;-68
2024/01/28 00:51:34;;;;;;;;;;;;;;;-0.31;100.00;103219.41;4990640;28;20011;-68
2024/01/28 00:54:00;;;;;;;;;;;;;;;-0.31;100.00;103234.38;4984936;28;20391;-68
2024/01/28 00:56:25;;;;;;;;;;;;;;;-0.32;100.00;103230.84;4989812;28;20427;-68
2024/01/28 00:58:50;;;;;;;;;;;;;;;-0.31;100.00;103226.47;4993969;28;20707;-68
2024/01/28 01:01:16;;;;;;;;;;;;;;;-0.34;100.00;103227.31;4980357;28;20438;-68
2024/01/28 01:03:41;;;;;;;;;;;;;;;-0.38;100.00;103229.94;4997135;28;19921;-68
2024/01/28 01:06:07;;;;;;;;;;;;;;;-0.39;100.00;103233.44;5005395;28;20014;-68
2024/01/28 01:08:32;;;;;;;;;;;;;;;-0.40;100.00;103229.03;4996816;28;19925;-68
2024/01/28 01:10:58;;;;;;;;;;;;;;;-0.40;100.00;103235.22;5006063;28;20012;-68
2024/01/28 01:13:23;;;;;;;;;;;;;;;-0.41;100.00;103225.53;4994034;28;19937;-68
2024/01/28 01:15:48;;;;;;;;;;;;;;;-0.43;100.00;103226.38;4993671;28;20409;-68
2024/01/28 01:18:14;;;;;;;;;;;;;;;-0.42;100.00;103228.16;4995820;28;19984;-68
2024/01/28 01:20:39;;;;;;;;;;;;;;;-0.45;100.00;103221.09;4981581;28;20326;-68
2024/01/28 01:23:04;;;;;;;;;;;;;;;-0.45;100.00;103223.75;4994889;28;19917;-68
2024/01/28 01:25:29;;;;;;;;;;;;;;;-0.46;100.00;103224.63;4980567;28;20150;-68
2024/01/28 01:27:55;;;;;;;;;;;;;;;-0.49;100.00;103222.81;4996374;28;19961;-68
2024/01/28 01:30:20;;;;;;;;;;;;;;;-0.49;100.00;103224.59;4997913;28;20108;-68
2024/01/28 01:32:45;;;;;;;;;;;;;;;-0.51;100.00;103229.84;4998456;28;19960;-68
2024/01/28 01:35:14;;;;;;;;;;;;;;;-0.53;100.00;103225.44;5019940;28;20339;-68
2024/01/28 01:37:39;;;;;;;;;;;;;;;-0.57;100.00;103219.25;4994702;28;19921;-68
2024/01/28 01:40:05;;;;;;;;;;;;;;;-0.63;100.00;103222.72;4981242;28;20352;-68
2024/01/28 01:42:30;;;;;;;;;;;;;;;-0.72;100.00;103220.03;4979799;28;19921;-68
2024/01/28 01:44:55;;;;;;;;;;;;;;;-0.82;100.00;103220.81;4996984;28;20186;-68
2024/01/28 01:47:21;;;;;;;;;;;;;;;-0.89;100.00;103218.97;5002416;28;19930;-68
2024/01/28 01:49:47;;;;;;;;;;;;;;;-0.92;100.00;103217.22;4997871;28;19925;-68
2024/01/28 01:52:13;;;;;;;;;;;;;;;-0.99;100.00;103210.13;5000860;28;20320;-68
2024/01/28 01:54:38;;;;;;;;;;;;;;;-1.07;100.00;103216.22;4995039;28;19926;-68
2024/01/28 01:57:04;;;;;;;;;;;;;;;-1.15;100.00;103214.34;4993520;28;19921;-68
2024/01/28 01:59:29;;;;;;;;;;;;;;;-1.24;100.00;103215.16;4996731;28;19928;-68
2024/01/28 02:01:55;;;;;;;;;;;;;;;-1.28;100.00;103211.63;4997916;28;19959;-68
2024/01/28 02:04:20;;;;;;;;;;;;;;;-1.33;100.00;103213.31;4997337;28;20312;-68
2024/01/28 02:06:45;;;;;;;;;;;;;;;-1.34;100.00;103218.59;5000401;28;19917;-68
2024/01/28 02:09:11;;;;;;;;;;;;;;;-1.34;100.00;103218.59;4994556;28;19922;-68
2024/01/28 02:11:36;;;;;;;;;;;;;;;-1.36;100.00;103226.47;4990865;28;19925;-68
2024/01/28 02:14:01;;;;;;;;;;;;;;;-1.38;100.00;103217.66;4996331;28;20071;-68
2024/01/28 02:16:27;;;;;;;;;;;;;;;-1.42;100.00;103218.47;4997734;28;19943;-68
2024/01/28 02:18:52;;;;;;;;;;;;;;;-1.48;100.00;103224.56;4978047;28;19992;-68
2024/01/28 02:21:17;;;;;;;;;;;;;;;-1.53;100.00;103219.28;4995682;28;19960;-68
2024/01/28 02:23:42;;;;;;;;;;;;;;;-1.58;100.00;103214.78;5005277;28;20035;-68
2024/01/28 02:26:08;;;;;;;;;;;;;;;-1.61;100.00;103215.66;4996101;28;19936;-68
2024/01/28 02:28:33;;;;;;;;;;;;;;;-1.63;100.00;103209.47;4998331;28;20214;-68
2024/01/28 02:30:58;;;;;;;;;;;;;;;-1.65;100.00;103203.31;4996269;28;19932;-68
2024/01/28 02:33:23;;;;;;;;;;;;;;;-1.68;100.00;103209.44;4996840;28;19929;-68
2024/01/28 02:35:49;;;;;;;;;;;;;;;-1.77;100.00;103205.81;5005792;28;19922;-68
2024/01/28 02:38:14;;;;;;;;;;;;;;;-1.88;100.00;103198.66;4991784;28;19984;-68
2024/01/28 02:40:39;;;;;;;;;;;;;;;-1.88;100.00;103190.75;4992250;28;19967;-68
2024/01/28 02:43:05;;;;;;;;;;;;;;;-1.85;100.00;103182.91;4993594;28;19926;-68
2024/01/28 02:45:31;;;;;;;;;;;;;;;-1.83;100.00;103178.53;5007330;28;20758;-68
2024/01/28 02:47:56;;;;;;;;;;;;;;;-1.77;100.00;103166.31;4998482;28;19936;-68
2024/01/28 02:50:21;;;;;;;;;;;;;;;-1.78;100.00;103162.78;4992666;28;19931;-68
2024/01/28 02:52:46;;;;;;;;;;;;;;;-1.78;100.00;103159.28;4995975;28;20094;-68
2024/01/28 02:55:12;;;;;;;;;;;;;;;-1.81;100.00;103160.09;4996647;28;20423;-68
2024/01/28 02:57:37;;;;;;;;;;;;;;;-1.84;100.00;103153.06;5001052;28;19922;-68
2024/01/28 03:00:03;;;;;;;;;;;;;;;-1.83;100.00;103154.84;4994387;28;19933;-68
2024/01/28 03:02:29;;;;;;;;;;;;;;;-1.77;100.00;103155.78;4997713;28;20350;-68
2024/01/28 03:04:54;;;;;;;;;;;;;;;-1.75;100.00;103148.78;4994539;28;20002;-68
2024/01/28 03:07:19;;;;;;;;;;;;;;;-1.79;100.00;103142.56;4990930;28;19932;-68
2024/01/28 03:09:44;;;;;;;;;;;;;;;-1.82;100.00;103142.53;4990053;28;19979;-68
2024/01/28 03:12:10;;;;;;;;;;;;;;;-1.87;100.00;103137.22;4988814;28;20466;-68
2024/01/28 03:14:35;;;;;;;;;;;;;;;-1.88;100.00;103146.00;5001908;28;19953;-68
2024/01/28 03:17:00;;;;;;;;;;;;;;;-1.95;100.00;103136.25;5003983;28;19982;-68
2024/01/28 03:19:26;;;;;;;;;;;;;;;-2.05;100.00;103142.28;5004718;28;20008;-68
2024/01/28 03:21:51;;;;;;;;;;;;;;;-2.10;100.00;103134.31;4990620;28;19922;-68
2024/01/28 03:24:16;;;;;;;;;;;;;;;-2.10;100.00;103136.94;4994940;28;19929;-68
2024/01/28 03:26:41;;;;;;;;;;;;;;;-2.04;100.00;103136.16;4992151;28;19925;-68
2024/01/28 03:29:07;;;;;;;;;;;;;;;-1.97;100.00;103135.34;5009372;28;19968;-68
2024/01/28 03:31:32;;;;;;;;;;;;;;;-1.88;100.00;103134.59;4996471;28;19940;-68
2024/01/28 03:33:57;;;;;;;;;;;;;;;-1.83;100.00;103133.75;4978606;28;19917;-68
2024/01/28 03:36:23;;;;;;;;;;;;;;;-1.77;100.00;103129.44;5008243;28;20404;-68
2024/01/28 03:38:48;;;;;;;;;;;;;;;-1.79;100.00;103141.69;4994941;28;20557;-68
2024/01/28 03:41:14;;;;;;;;;;;;;;;-1.84;100.00;103136.34;4993480;28;20387;-68
2024/01/28 03:43:39;;;;;;;;;;;;;;;-1.84;100.00;103139.91;5007628;28;19925;-68
2024/01/28 03:46:08;;;;;;;;;;;;;;;-1.83;100.00;103135.50;4994179;28;19956;-68
2024/01/28 03:48:33;;;;;;;;;;;;;;;-1.97;100.00;103115.19;4994008;28;20493;-68
2024/01/28 03:50:58;;;;;;;;;;;;;;;-1.85;100.00;103138.13;5006947;28;19929;-68
2024/01/28 03:53:23;;;;;;;;;;;;;;;-1.82;100.00;103139.91;4993610;28;20219;-68
2024/01/28 03:55:48;;;;;;;;;;;;;;;-1.80;100.00;103138.16;5006965;28;20284;-68
2024/01/28 03:58:14;;;;;;;;;;;;;;;-1.77;100.00;103132.94;4995413;28;20451;-68
2024/01/28 04:00:39;;;;;;;;;;;;;;;-1.75;100.00;103125.94;4994034;28;20320;-68
2024/01/28 04:03:04;;;;;;;;;;;;;;;-1.83;100.00;103133.75;4994577;28;20311;-68
2024/01/28 04:05:32;;;;;;;;;;;;;;;-1.95;100.00;103130.97;4993582;28;20429;-68
2024/01/28 04:07:57;;;;;;;;;;;;;;;-2.05;100.00;103118.59;4993373;28;19925;-68
2024/01/28 04:10:22;;;;;;;;;;;;;;;-2.00;100.00;103114.25;4992865;28;19995;-68
2024/01/28 04:12:48;;;;;;;;;;;;;;;-2.04;100.00;103112.47;5004582;28;20012;-68
2024/01/28 04:15:13;;;;;;;;;;;;;;;-2.02;100.00;103110.72;4992106;28;19972;-68
2024/01/28 04:17:38;;;;;;;;;;;;;;;-1.96;100.00;103110.78;4993588;28;20031;-68
2024/01/28 04:20:06;;;;;;;;;;;;;;;-1.90;100.00;103102.09;5009042;28;20320;-68
2024/01/28 04:22:31;;;;;;;;;;;;;;;-1.87;100.00;103108.25;4993247;28;20395;-68
2024/01/28 04:24:57;;;;;;;;;;;;;;;-1.84;100.00;103108.28;4991242;28;19933;-68
2024/01/28 04:27:22;;;;;;;;;;;;;;;-1.90;100.00;103094.19;4998682;28;19971;-68
2024/01/28 04:29:47;;;;;;;;;;;;;;;-1.93;100.00;103099.41;4992626;28;20020;-68
2024/01/28 04:32:14;;;;;;;;;;;;;;;-1.92;100.00;103094.16;5008170;28;19925;-68
2024/01/28 04:34:39;;;;;;;;;;;;;;;-1.86;100.00;103102.13;4993235;28;19922;-68
2024/01/28 04:37:04;;;;;;;;;;;;;;;-1.81;100.00;103104.78;4993915;28;20719;-68
2024/01/28 04:39:30;;;;;;;;;;;;;;;-1.86;100.00;103103.88;4995337;28;20346;-68
2024/01/28 04:41:55;;;;;;;;;;;;;;;-1.86;100.00;103094.22;5007995;28;19928;-68
2024/01/28 04:44:20;;;;;;;;;;;;;;;-1.83;100.00;103094.25;4992136;28;19961;-68
2024/01/28 04:46:45;;;;;;;;;;;;;;;-1.81;100.00;103096.88;4997599;28;20004;-68
2024/01/28 04:49:11;;;;;;;;;;;;;;;-1.77;100.00;103087.28;4996475;28;19921;-68
2024/01/28 04:51:36;;;;;;;;;;;;;;;-1.73;100.00;103089.09;5013490;28;19956;-68
2024/01/28 04:54:01;;;;;;;;;;;;;;;-1.69;100.00;103082.97;4994980;28;19922;-68
2024/01/28 04:56:27;;;;;;;;;;;;;;;-1.68;100.00;103080.34;4994336;28;20009;-68
2024/01/28 04:58:52;;;;;;;;;;;;;;;-1.67;100.00;103076.84;4997929;28;19924;-68
2024/01/28 05:01:17;;;;;;;;;;;;;;;-1.67;100.00;103073.31;4998758;28;19925;-69
2024/01/28 05:03:42;;;;;;;;;;;;;;;-1.66;100.00;103072.47;4997198;28;19956;-68
2024/01/28 05:06:09;;;;;;;;;;;;;;;-1.67;100.00;103074.22;4999763;28;20012;-68
2024/01/28 05:08:35;;;;;;;;;;;;;;;-1.66;100.00;103068.09;4988804;28;20261;-68
2024/01/28 05:11:00;;;;;;;;;;;;;;;-1.67;100.00;103066.31;4990094;28;20544;-68
2024/01/28 05:13:25;;;;;;;;;;;;;;;-1.66;100.00;103061.91;4993013;28;19944;-68
2024/01/28 05:15:50;;;;;;;;;;;;;;;-1.65;100.00;103063.69;4996992;28;19972;-68
2024/01/28 05:18:16;;;;;;;;;;;;;;;-1.62;100.00;103052.31;4993208;28;20488;-68
2024/01/28 05:20:41;;;;;;;;;;;;;;;-1.61;100.00;103054.94;5011329;28;20249;-69
2024/01/28 05:23:06;;;;;;;;;;;;;;;-1.59;100.00;103047.94;4995191;28;19969;-68
2024/01/28 05:25:32;;;;;;;;;;;;;;;-1.55;100.00;103047.09;4998600;28;20064;-68
2024/01/28 05:27:57;;;;;;;;;;;;;;;-1.47;100.00;103047.16;4990657;28;19983;-69
2024/01/28 05:30:22;;;;;;;;;;;;;;;-1.41;100.00;103049.84;5000308;28;20362;-68
2024/01/28 05:32:48;;;;;;;;;;;;;;;-1.30;100.00;103064.84;4998711;28;20556;-68
2024/01/28 05:35:13;;;;;;;;;;;;;;;-1.30;100.00;103063.13;4994181;28;19921;-68
2024/01/28 05:37:39;;;;;;;;;;;;;;;-1.31;100.00;103063.06;4993802;28;19925;-68
2024/01/28 05:40:04;;;;;;;;;;;;;;;-1.32;100.00;103058.72;4988712;28;19936;-68
2024/01/28 05:42:30;;;;;;;;;;;;;;;-1.33;100.00;103057.81;4995312;28;19928;-68
2024/01/28 05:44:55;;;;;;;;;;;;;;;-1.35;100.00;103054.28;4996866;28;19929;-68
2024/01/28 05:47:20;;;;;;;;;;;;;;;-1.34;100.00;103042.88;4996973;28;19925;-68
2024/01/28 05:49:45;;;;;;;;;;;;;;;-1.36;100.00;103034.97;4993462;28;19960;-68
2024/01/28 05:52:11;;;;;;;;;;;;;;;-1.37;100.00;103038.47;5003360;28;19972;-68
2024/01/28 05:54:41;;;;;;;;;;;;;;;-1.40;100.00;103040.19;5000989;28;20371;-68
2024/01/28 05:57:06;;;;;;;;;;;;;;;-1.52;100.00;103026.06;4996190;28;19921;-68
2024/01/28 05:59:31;;;;;;;;;;;;;;;-1.57;100.00;103019.84;4988829;28;19928;-68
2024/01/28 06:01:57;;;;;;;;;;;;;;;-1.62;100.00;103013.66;4996152;28;19921;-68
2024/01/28 06:04:22;;;;;;;;;;;;;;;-1.62;100.00;103015.44;4995204;28;20345;-68
2024/01/28 06:06:47;;;;;;;;;;;;;;;-1.61;100.00;103020.69;5004915;28;20324;-68
2024/01/28 06:09:12;;;;;;;;;;;;;;;-1.59;100.00;103011.06;4994533;28;20252;-68
2024/01/28 06:11:37;;;;;;;;;;;;;;;-1.57;100.00;103018.97;4995244;28;20041;-68
2024/01/28 06:14:03;;;;;;;;;;;;;;;-1.60;100.00;103011.06;4996159;28;19943;-68
2024/01/28 06:16:28;;;;;;;;;;;;;;;-1.64;100.00;103010.13;4993679;28;20207;-68
2024/01/28 06:18:53;;;;;;;;;;;;;;;-1.62;100.00;103007.53;5000005;28;19921;-68
2024/01/28 06:21:18;;;;;;;;;;;;;;;-1.58;100.00;102998.75;4997796;28;19921;-68
2024/01/28 06:23:44;;;;;;;;;;;;;;;-1.64;100.00;103004.88;4992388;28;19951;-68
2024/01/28 06:26:09;;;;;;;;;;;;;;;-1.72;100.00;102993.41;5005327;28;20016;-68
2024/01/28 06:28:34;;;;;;;;;;;;;;;-1.75;100.00;102991.59;5001001;28;20340;-68
2024/01/28 06:31:00;;;;;;;;;;;;;;;-1.69;100.00;102983.75;4990716;28;19931;-68
2024/01/28 06:33:25;;;;;;;;;;;;;;;-1.68;100.00;102987.25;4996312;28;19921;-68
2024/01/28 06:35:50;;;;;;;;;;;;;;;-1.70;100.00;102981.09;4997158;28;19953;-68
2024/01/28 06:38:15;;;;;;;;;;;;;;;-1.70;100.00;102976.72;4993386;28;19949;-68
2024/01/28 06:40:41;;;;;;;;;;;;;;;-1.70;100.00;102963.56;4996367;28;20039;-68
2024/01/28 06:43:06;;;;;;;;;;;;;;;-1.61;100.00;102965.38;4995534;28;19925;-68
2024/01/28 06:45:31;;;;;;;;;;;;;;;-1.62;100.00;102968.00;4993912;28;19921;-68
2024/01/28 06:47:57;;;;;;;;;;;;;;;-1.55;100.00;102965.44;5011350;28;19929;-68
2024/01/28 06:50:22;;;;;;;;;;;;;;;-1.54;100.00;102967.19;5005267;28;19921;-68
2024/01/28 06:52:50;;;;;;;;;;;;;;;-1.57;100.00;102968.91;4994185;28;19932;-68
2024/01/28 06:55:16;;;;;;;;;;;;;;;-1.58;100.00;102969.78;4995058;28;20527;-68
2024/01/28 06:57:41;;;;;;;;;;;;;;;-1.56;100.00;102968.03;5008325;28;19929;-68
2024/01/28 07:00:10;;;;;;;;;;;;;;;-1.58;100.00;102973.31;4988322;28;19929;-68
2024/01/28 07:02:35;;;;;;;;;;;;;;;-1.61;100.00;102965.38;5000460;28;20010;-68
2024/01/28 07:05:01;;;;;;;;;;;;;;;-1.63;100.00;102967.13;5005750;28;20275;-68
2024/01/28 07:07:26;;;;;;;;;;;;;;;-1.74;100.00;102968.81;5005309;28;20040;-68
2024/01/28 07:09:51;;;;;;;;;;;;;;;-1.69;100.00;102974.97;4996259;28;19927;-68
2024/01/28 07:12:16;;;;;;;;;;;;;;;-1.55;100.00;102969.78;4998985;28;20380;-68
2024/01/28 07:14:42;;;;;;;;;;;;;;;-1.47;100.00;102967.25;4994273;28;20442;-68
2024/01/28 07:17:08;;;;;;;;;;;;;;;-1.50;100.00;102970.72;5008495;28;19948;-68
2024/01/28 07:19:33;;;;;;;;;;;;;;;-1.57;100.00;102976.81;4993611;28;20020;-68
2024/01/28 07:21:58;;;;;;;;;;;;;;;-1.56;100.00;102968.94;5007832;28;19922;-68
2024/01/28 07:24:24;;;;;;;;;;;;;;;-1.54;100.00;102964.56;5006135;28;20019;-68
2024/01/28 07:26:49;;;;;;;;;;;;;;;-1.49;100.00;102967.22;5006792;28;20063;-68
2024/01/28 07:29:14;;;;;;;;;;;;;;;-1.59;100.00;102971.53;4996171;28;19922;-68
2024/01/28 07:31:40;;;;;;;;;;;;;;;-1.56;100.00;102965.41;4995010;28;19930;-68
2024/01/28 07:34:05;;;;;;;;;;;;;;;-1.62;100.00;102962.75;5009169;28;20485;-68
2024/01/28 07:36:30;;;;;;;;;;;;;;;-1.60;100.00;102963.63;4997099;28;20379;-68
2024/01/28 07:38:56;;;;;;;;;;;;;;;-1.54;100.00;102955.75;5004908;28;20001;-68
2024/01/28 07:41:21;;;;;;;;;;;;;;;-1.55;100.00;102956.63;5002677;28;20024;-69
2024/01/28 07:43:46;;;;;;;;;;;;;;;-1.60;100.00;102959.25;5004192;28;20004;-68
2024/01/28 07:46:12;;;;;;;;;;;;;;;-1.53;100.00;102963.69;4991589;28;19933;-68
2024/01/28 07:48:37;;;;;;;;;;;;;;;-1.37;100.00;102961.13;4991238;28;19988;-68
2024/01/28 07:51:05;;;;;;;;;;;;;;;-1.52;100.00;102933.84;4993767;28;20031;-68
2024/01/28 07:53:30;;;;;;;;;;;;;;;-1.14;100.00;102957.75;4992825;28;19949;-68
2024/01/28 07:55:55;;;;;;;;;;;;;;;-0.93;100.00;102954.34;4992675;28;19922;-68
2024/01/28 07:58:21;;;;;;;;;;;;;;;-0.75;100.00;102958.81;4994664;28;19973;-68
2024/01/28 08:00:46;;;;;;;;;;;;;;;-0.55;100.00;102965.91;4997561;28;19921;-68
2024/01/28 08:03:11;;;;;;;;;;;;;;;-0.39;100.00;102969.47;4994019;28;19963;-68
2024/01/28 08:05:36;;;;;;;;;;;;;;;-0.29;100.00;102967.75;5014734;28;20024;-68
2024/01/28 08:08:01;;;;;;;;;;;;;;;-0.15;100.00;102971.31;4995714;28;19921;-69
2024/01/28 08:10:27;;;;;;;;;;;;;;;-0.17;100.00;102957.22;5011919;28;20357;-68
2024/01/28 08:12:52;;;;;;;;;;;;;;;-0.23;100.00;102962.47;4997871;28;20457;-68
2024/01/28 08:15:19;;;;;;;;;;;;;;;-0.08;100.00;102965.13;4994698;28;20722;-69
2024/01/28 08:17:44;;;;;;;;;;;;;;;-0.07;100.00;102960.75;4992046;28;19933;-68
2024/01/28 08:20:09;;;;;;;;;;;;;;;-0.01;100.00;102971.31;4996049;28;19956;-68
2024/01/28 08:22:35;;;;;;;;;;;;;;;0.19;100.00;102966.03;4995089;28;20038;-68
2024/01/28 08:25:00;;;;;;;;;;;;;;;0.36;100.00;102963.38;4995096;28;19926;-68
2024/01/28 08:27:25;;;;;;;;;;;;;;;0.50;100.00;102959.84;4997060;28;20335;-68
2024/01/28 08:29:50;;;;;;;;;;;;;;;0.71;100.00;102959.81;5009317;28;20381;-68
2024/01/28 08:32:16;;;;;;;;;;;;;;;0.82;100.00;102953.59;4995700;28;20429;-69
2024/01/28 08:34:41;;;;;;;;;;;;;;;0.89;100.00;102952.69;4999826;28;19933;-68
2024/01/28 08:37:06;;;;;;;;;;;;;;;0.91;100.00;102945.63;4995027;28;20310;-68
2024/01/28 08:39:31;;;;;;;;;;;;;;;0.73;100.00;102941.28;4988723;28;20280;-68
2024/01/28 08:41:56;;;;;;;;;;;;;;;0.83;100.00;102936.84;5007984;28;20364;-68
2024/01/28 08:44:22;;;;;;;;;;;;;;;1.03;100.00;102932.38;5008739;28;19929;-68
2024/01/28 08:46:47;;;;;;;;;;;;;;;1.27;100.00;102935.78;5007660;28;19964;-68
2024/01/28 08:49:12;;;;;;;;;;;;;;;1.38;100.00;102927.78;5003696;28;22218;-69
2024/01/28 08:51:40;;;;;;;;;;;;;;;1.71;100.00;102932.88;5002879;28;19976;-68
2024/01/28 08:54:05;;;;;;;;;;;;;;;1.87;100.00;102931.00;5005095;28;19925;-68
2024/01/28 08:56:30;;;;;;;;;;;;;;;1.97;100.00;102924.75;4996702;28;19928;-68
2024/01/28 08:58:56;;;;;;;;;;;;;;;2.06;100.00;102919.34;4996886;28;19922;-69
2024/01/28 09:01:21;;;;;;;;;;;;;;;1.87;100.00;102923.91;5008077;28;19969;-68
2024/01/28 09:03:47;;;;;;;;;;;;;;;1.79;100.00;102921.34;4996289;28;19922;-70
2024/01/28 09:06:12;;;;;;;;;;;;;;;1.94;100.00;102916.81;4990923;28;20423;-68
2024/01/28 09:08:37;;;;;;;;;;;;;;;2.04;100.00;102920.28;4988680;28;19964;-68
2024/01/28 09:11:02;;;;;;;;;;;;;;;2.23;100.00;102913.03;5006328;28;19973;-68
2024/01/28 09:13:28;;;;;;;;;;;;;;;2.31;100.00;102915.63;4991377;28;20274;-68
2024/01/28 09:15:53;;;;;;;;;;;;;;;2.43;100.00;102912.81;5005963;28;19918;-68
2024/01/28 09:18:18;;;;;;;;;;;;;;;2.33;100.00;102909.38;5002364;28;19922;-68
2024/01/28 09:20:44;;;;;;;;;;;;;;;2.17;100.00;102899.84;4999866;28;19921;-68
2024/01/28 09:23:09;;;;;;;;;;;;;;;2.25;100.00;102908.59;4997707;28;19921;-68
2024/01/28 09:25:34;;;;;;;;;;;;;;;2.38;100.00;102894.31;4995697;28;19918;-68
2024/01/28 09:27:59;;;;;;;;;;;;;;;2.36;100.00;102890.81;4996735;28;19926;-68
2024/01/28 09:30:25;;;;;;;;;;;;;;;2.38;100.00;102894.31;4980727;28;19972;-68
2024/01/28 09:32:50;;;;;;;;;;;;;;;2.50;100.00;102889.78;4990060;28;19918;-68
2024/01/28 09:35:16;;;;;;;;;;;;;;;2.62;100.00;102894.09;4991823;28;20028;-69
2024/01/28 09:37:41;;;;;;;;;;;;;;;2.81;100.00;102892.06;4991204;28;20490;-68
2024/01/28 09:40:07;;;;;;;;;;;;;;;2.91;100.00;102892.84;5002467;28;19968;-69
2024/01/28 09:42:37;;;;;;;;;;;;;;;3.01;100.00;102891.81;4976409;28;19921;-69
2024/01/28 09:45:03;;;;;;;;;;;;;;;3.36;100.00;102887.81;4988021;28;20004;-69
2024/01/28 09:47:28;;;;;;;;;;;;;;;3.75;100.00;102892.53;4988704;28;19921;-68
2024/01/28 09:49:53;;;;;;;;;;;;;;;4.24;100.00;102892.59;5002081;28;20020;-68
2024/01/28 09:52:18;;;;;;;;;;;;;;;4.27;100.00;102887.22;4992785;28;20023;-68
2024/01/28 09:54:47;;;;;;;;;;;;;;;4.48;100.00;102886.81;4994872;28;19921;-68
2024/01/28 09:57:12;;;;;;;;;;;;;;;4.71;100.00;102880.16;4988527;28;20350;-68
2024/01/28 09:59:37;;;;;;;;;;;;;;;4.95;100.00;102875.22;4993103;28;20439;-68
2024/01/28 10:02:03;;;;;;;;;;;;;;;5.19;100.00;102881.81;4987933;28;19926;-68
2024/01/28 10:04:29;;;;;;;;;;;;;;;5.35;100.00;102877.03;5003021;28;20443;-69
2024/01/28 10:06:57;;;;;;;;;;;;;;;5.53;100.00;102875.72;4996212;28;19968;-68
2024/01/28 10:09:23;;;;;;;;;;;;;;;5.92;100.00;102868.53;4988161;28;20501;-69
2024/01/28 10:11:48;;;;;;;;;;;;;;;5.99;100.00;102875.47;4989479;28;19940;-68
2024/01/28 10:14:13;;;;;;;;;;;;;;;6.19;100.00;102871.44;4997941;28;19957;-68
2024/01/28 10:16:38;;;;;;;;;;;;;;;6.57;100.00;102861.50;5003992;28;20016;-69
2024/01/28 10:19:05;;;;;;;;;;;;;;;6.79;100.00;102858.22;4990568;28;19921;-68
2024/01/28 10:21:31;;;;;;;;;;;;;;;6.90;100.00;102850.75;4995043;28;19926;-68
2024/01/28 10:23:56;;;;;;;;;;;;;;;6.97;100.00;102849.63;4989941;28;19933;-69
2024/01/28 10:26:22;;;;;;;;;;;;;;;7.45;100.00;102847.28;4991462;28;19925;-69
2024/01/28 10:28:47;;;;;;;;;;;;;;;7.58;100.00;102848.63;4996754;28;19925;-69
2024/01/28 10:31:12;;;;;;;;;;;;;;;7.64;100.00;102847.53;5006532;28;19925;-69
2024/01/28 10:33:37;;;;;;;;;;;;;;;8.01;100.00;102837.38;4997223;28;19921;-69
2024/01/28 10:36:05;;;;;;;;;;;;;;;8.57;100.00;102838.09;4991267;28;19917;-69
2024/01/28 10:38:31;;;;;;;;;;;;;;;8.91;100.00;102835.00;4979456;28;19921;-69
2024/01/28 10:40:56;;;;;;;;;;;;;;;8.46;100.00;102815.28;4989457;28;19921;-69
2024/01/28 10:43:27;;;;;;;;;;;;;;;8.67;100.00;102826.13;4983718;28;20686;-69
2024/01/28 10:45:54;;;;;;;;;;;;;;;8.67;100.00;102818.94;5009127;28;19925;-69
2024/01/28 10:48:19;;;;;;;;;;;;;;;9.05;100.00;102821.06;4983668;28;19926;-69
2024/01/28 10:50:45;;;;;;;;;;;;;;;9.01;100.00;102814.06;5003003;28;19922;-69
2024/01/28 10:53:12;;;;;;;;;;;;;;;9.61;100.00;102810.75;4980549;28;20399;-68
2024/01/28 10:55:38;;;;;;;;;;;;;;;9.58;100.00;102809.09;5004811;28;20385;-69
2024/01/28 10:58:04;;;;;;;;;;;;;;;9.32;100.00;102804.81;4990357;28;19922;-70
2024/01/28 11:00:30;;;;;;;;;;;;;;;9.67;100.00;102799.78;4992542;28;19999;-69
2024/01/28 11:02:56;;;;;;;;;;;;;;;10.35;99.01;102791.41;4992278;28;20406;-69
2024/01/28 11:05:21;;;;;;;;;;;;;;;10.54;96.56;102790.63;5003840;28;19925;-69
2024/01/28 11:07:48;;;;;;;;;;;;;;;10.45;96.83;102762.38;5002913;28;20299;-69
2024/01/28 11:10:13;;;;;;;;;;;;;;;10.58;96.67;102777.91;4988094;28;20033;-69
2024/01/28 11:12:39;;;;;;;;;;;;;;;11.23;93.29;102775.66;4988398;28;19925;-69
2024/01/28 11:15:04;;;;;;;;;;;;;;;11.36;90.49;102772.38;4989858;28;19925;-69
2024/01/28 11:17:30;;;;;;;;;;;;;;;11.42;90.58;102761.28;5006433;28;19947;-69
2024/01/28 11:20:04;;;;;;;;;;;;;;;11.70;90.64;102757.19;4993459;28;19922;-69
2024/01/28 11:22:29;;;;;;;;;;;;;;;12.15;88.69;102761.13;4997887;28;19971;-69
2024/01/28 11:24:56;;;;;;;;;;;;;;;12.09;88.27;102757.88;4999629;28;19925;-69
2024/01/28 11:27:22;;;;;;;;;;;;;;;12.24;87.48;102753.47;4993041;28;19953;-70
2024/01/28 11:29:48;;;;;;;;;;;;;;;12.08;88.08;102748.06;5010255;28;20478;-70
2024/01/28 11:32:14;;;;;;;;;;;;;;;12.55;85.69;102749.09;4997714;28;20019;-71
2024/01/28 11:34:41;;;;;;;;;;;;;;;12.64;84.41;102745.03;4998721;28;19932;-70
2024/01/28 11:37:08;;;;;;;;;;;;;;;13.14;81.57;102743.09;4991023;28;19947;-69
2024/01/28 11:39:33;;;;;;;;;;;;;;;13.46;80.07;102743.91;5000034;28;19925;-70
2024/01/28 11:41:58;;;;;;;;;;;;;;;13.78;78.43;102727.59;5003107;28;19921;-70
2024/01/28 11:44:23;;;;;;;;;;;;;;;14.01;77.95;102733.38;4991372;28;19922;-70
2024/01/28 11:46:48;;;;;;;;;;;;;;;13.57;77.60;102727.06;4933811;28;1738042;-70
2024/01/28 11:49:14;;;;;;;;;;;;;;;13.53;76.37;102719.25;4998605;28;19921;-70
2024/01/28 11:51:39;;;;;;;;;;;;;;;13.47;76.80;102723.19;5000394;28;20009;-70
2024/01/28 11:54:05;;;;;;;;;;;;;;;13.70;76.01;102708.28;5006050;28;19921;-69
2024/01/28 11:56:30;;;;;;;;;;;;;;;13.69;77.95;102714.63;5002660;28;19959;-69
2024/01/28 11:58:56;;;;;;;;;;;;;;;14.09;75.57;102708.59;4998135;28;20145;-70
2024/01/28 12:01:21;;;;;;;;;;;;;;;14.32;76.23;102712.53;4997828;28;20111;-70
2024/01/28 12:03:47;;;;;;;;;;;;;;;14.67;71.37;102700.41;5000325;28;20383;-70
2024/01/28 12:06:12;;;;;;;;;;;;;;;14.40;70.80;102696.72;4994038;28;19948;-70
2024/01/28 12:08:41;;;;;;;;;;;;;;;14.36;72.63;102689.75;4997982;28;20012;-70
2024/01/28 12:11:06;;;;;;;;;;;;;;;14.48;72.00;102692.63;4992920;28;20292;-70
2024/01/28 12:13:31;;;;;;;;;;;;;;;14.77;70.08;102693.47;4996523;28;19918;-69
2024/01/28 12:15:58;;;;;;;;;;;;;;;14.64;68.54;102687.97;5005799;28;19967;-70
2024/01/28 12:18:28;;;;;;;;;;;;;;;13.91;70.37;102686.31;5006109;28;19960;-70
2024/01/28 12:20:54;;;;;;;;;;;;;;;13.95;69.23;102686.03;4999711;28;19953;-70